createdAt,value
2018-12-24T00:01:09.320Z,101623.22
2018-12-24T00:03:37.328Z,101624.20
2018-12-24T00:13:33.033Z,101635.12
2018-12-24T00:16:10.901Z,101634.64
2018-12-24T00:20:47.178Z,101642.95
2018-12-24T00:40:18.983Z,101644.77
2018-12-24T00:42:51.438Z,101644.47
2018-12-24T00:48:03.268Z,101655.55
2018-12-24T00:50:40.968Z,101655.81
2018-12-24T01:14:17.386Z,101672.78
2018-12-24T01:21:24.880Z,101676.69
2018-12-24T01:27:31.233Z,101681.37
2018-12-24T01:33:44.635Z,101685.77
2018-12-24T01:36:34.648Z,101691.98
2018-12-24T01:39:21.108Z,101696.19
2018-12-24T01:52:09.176Z,101705.90
2018-12-24T02:16:29.453Z,101707.72
2018-12-24T02:19:27.000Z,101709.30
2018-12-24T02:28:54.408Z,101710.88
2018-12-24T02:31:29.040Z,101713.20
2018-12-24T02:34:28.288Z,101712.84
2018-12-24T02:40:11.222Z,101722.45
2018-12-24T02:46:17.872Z,101707.02
2018-12-24T02:52:44.653Z,101706.67
2018-12-24T03:01:29.368Z,101705.55
2018-12-24T03:04:10.342Z,101693.71
2018-12-24T03:07:05.121Z,101703.72
2018-12-24T03:09:33.462Z,101707.27
2018-12-24T03:12:01.900Z,101700.98
2018-12-24T03:17:28.907Z,101711.72
2018-12-24T03:19:57.481Z,101709.16
2018-12-24T03:22:25.905Z,101708.19
2018-12-24T03:24:59.128Z,101711.53
2018-12-24T03:27:33.839Z,101716.38
2018-12-24T03:30:02.874Z,101714.55
2018-12-24T03:32:31.542Z,101705.95
2018-12-24T03:34:59.775Z,101707.03
2018-12-24T03:37:28.537Z,101705.68
2018-12-24T03:39:57.092Z,101707.72
2018-12-24T03:42:25.340Z,101712.17
2018-12-24T03:44:53.904Z,101712.56
2018-12-24T03:47:22.442Z,101708.68
2018-12-24T03:50:22.568Z,101707.20
2018-12-24T03:52:56.103Z,101711.61
2018-12-24T03:55:40.624Z,101712.20
2018-12-24T04:01:28.181Z,101704.09
2018-12-24T04:03:56.480Z,101703.39
2018-12-24T04:06:25.859Z,101705.04
2018-12-24T04:08:54.196Z,101696.19
2018-12-24T04:11:24.180Z,101703.36
2018-12-24T04:13:52.377Z,101709.21
2018-12-24T04:16:20.672Z,101704.34
2018-12-24T04:18:48.972Z,101699.31
2018-12-24T04:21:17.214Z,101706.14
2018-12-24T04:23:45.572Z,101703.33
2018-12-24T04:26:13.830Z,101704.22
2018-12-24T04:28:42.044Z,101713.33
2018-12-24T04:31:10.451Z,101713.97
2018-12-24T04:33:38.737Z,101714.11
2018-12-24T04:36:06.974Z,101713.80
2018-12-24T04:38:35.367Z,101709.31
2018-12-24T04:41:03.603Z,101708.36
2018-12-24T04:43:32.452Z,101714.80
2018-12-24T04:46:00.948Z,101711.97
2018-12-24T04:48:29.234Z,101720.56
2018-12-24T04:50:57.452Z,101725.29
2018-12-24T04:53:25.824Z,101723.73
2018-12-24T04:55:54.074Z,101726.81
2018-12-24T04:58:22.300Z,101727.64
2018-12-24T05:00:50.675Z,101727.34
2018-12-24T05:03:18.968Z,101725.05
2018-12-24T05:05:47.149Z,101730.43
2018-12-24T05:08:15.455Z,101732.27
2018-12-24T05:10:43.707Z,101734.91
2018-12-24T05:13:11.941Z,101739.87
2018-12-24T05:15:40.308Z,101737.00
2018-12-24T05:18:08.567Z,101739.37
2018-12-24T05:20:36.804Z,101740.64
2018-12-24T05:23:05.187Z,101747.09
2018-12-24T05:25:33.431Z,101748.18
2018-12-24T05:28:01.663Z,101740.89
2018-12-24T05:30:30.035Z,101747.88
2018-12-24T05:32:58.268Z,101746.28
2018-12-24T05:35:26.503Z,101753.89
2018-12-24T05:37:54.827Z,101761.23
2018-12-24T05:40:23.083Z,101762.47
2018-12-24T05:42:51.331Z,101759.34
2018-12-24T05:45:19.668Z,101766.73
2018-12-24T05:47:48.096Z,101770.92
2018-12-24T05:50:16.343Z,101776.14
2018-12-24T05:52:44.583Z,101780.09
2018-12-24T05:55:12.820Z,101779.70
2018-12-24T05:57:41.059Z,101787.64
2018-12-24T06:00:09.420Z,101793.23
2018-12-24T06:02:37.675Z,101793.05
2018-12-24T06:05:05.919Z,101800.07
2018-12-24T06:07:34.297Z,101814.28
2018-12-24T06:10:02.540Z,101811.48
2018-12-24T06:12:30.780Z,101815.80
2018-12-24T06:14:59.155Z,101817.43
2018-12-24T06:17:27.391Z,101823.85
2018-12-24T06:19:55.622Z,101827.05
2018-12-24T06:22:23.916Z,101823.45
2018-12-24T06:24:52.167Z,101819.84
2018-12-24T06:27:20.432Z,101822.33
2018-12-24T06:29:48.886Z,101816.89
2018-12-24T06:32:17.178Z,101817.45
2018-12-24T06:34:45.492Z,101827.92
2018-12-24T06:37:13.881Z,101827.28
2018-12-24T06:39:42.300Z,101836.28
2018-12-24T06:42:10.531Z,101833.69
2018-12-24T06:44:38.916Z,101834.45
2018-12-24T06:47:07.152Z,101840.36
2018-12-24T06:49:35.487Z,101836.28
2018-12-24T06:52:03.859Z,101837.33
2018-12-24T06:54:32.131Z,101843.15
2018-12-24T06:57:00.348Z,101847.91
2018-12-24T06:59:28.786Z,101842.20
2018-12-24T07:01:56.982Z,101835.62
2018-12-24T07:04:25.215Z,101832.36
2018-12-24T07:06:53.519Z,101839.48
2018-12-24T07:09:21.775Z,101838.23
2018-12-24T07:11:50.035Z,101846.17
2018-12-24T07:14:18.363Z,101844.88
2018-12-24T07:16:46.591Z,101849.33
2018-12-24T07:19:14.835Z,101846.33
2018-12-24T07:21:43.235Z,101850.80
2018-12-24T07:24:11.472Z,101853.11
2018-12-24T07:26:39.723Z,101857.57
2018-12-24T07:29:08.003Z,101861.06
2018-12-24T07:31:36.239Z,101857.87
2018-12-24T07:34:04.471Z,101865.47
2018-12-24T07:36:33.360Z,101863.61
2018-12-24T07:39:01.603Z,101862.59
2018-12-24T07:41:29.848Z,101866.30
2018-12-24T07:43:58.239Z,101864.56
2018-12-24T07:46:26.496Z,101866.64
2018-12-24T07:48:54.747Z,101870.18
2018-12-24T07:51:23.136Z,101872.00
2018-12-24T07:53:51.397Z,101872.98
2018-12-24T07:56:19.636Z,101871.73
2018-12-24T07:58:48.012Z,101874.14
2018-12-24T08:01:16.275Z,101870.05
2018-12-24T08:03:44.524Z,101868.23
2018-12-24T08:06:12.813Z,101871.38
2018-12-24T08:08:41.073Z,101869.88
2018-12-24T08:11:09.315Z,101867.75
2018-12-24T08:13:37.703Z,101870.29
2018-12-24T08:16:05.973Z,101875.14
2018-12-24T08:18:34.215Z,101883.52
2018-12-24T08:21:02.601Z,101885.30
2018-12-24T08:23:30.827Z,101880.03
2018-12-24T08:25:59.059Z,101879.10
2018-12-24T08:28:27.356Z,101883.42
2018-12-24T08:30:55.591Z,101891.13
2018-12-24T08:33:23.808Z,101895.66
2018-12-24T08:35:52.103Z,101896.27
2018-12-24T08:38:20.451Z,101901.19
2018-12-24T08:40:48.747Z,101888.45
2018-12-24T08:43:17.031Z,101879.01
2018-12-24T08:45:45.260Z,101885.57
2018-12-24T08:48:13.560Z,101866.55
2018-12-24T08:50:41.931Z,101858.53
2018-12-24T08:53:10.323Z,101864.81
2018-12-24T08:55:38.560Z,101864.47
2018-12-24T08:58:06.968Z,101876.17
2018-12-24T09:00:35.211Z,101884.91
2018-12-24T09:03:03.467Z,101884.36
2018-12-24T09:05:31.884Z,101880.17
2018-12-24T09:08:00.123Z,101870.87
2018-12-24T09:10:28.347Z,101884.17
2018-12-24T09:12:56.639Z,101884.52
2018-12-24T09:15:24.955Z,101883.96
2018-12-24T09:17:53.185Z,101890.13
2018-12-24T09:20:21.596Z,101884.42
2018-12-24T09:22:49.832Z,101888.52
2018-12-24T09:25:18.099Z,101893.71
2018-12-24T09:27:46.395Z,101888.91
2018-12-24T09:30:16.264Z,101893.19
2018-12-24T09:32:44.500Z,101891.80
2018-12-24T09:35:12.911Z,101880.83
2018-12-24T09:37:41.147Z,101879.88
2018-12-24T09:40:10.755Z,101880.33
2018-12-24T09:42:39.120Z,101880.38
2018-12-24T09:45:07.347Z,101883.07
2018-12-24T09:47:35.616Z,101887.48
2018-12-24T09:50:04.309Z,101889.77
2018-12-24T09:52:32.635Z,101890.43
2018-12-24T09:55:00.932Z,101896.12
2018-12-24T09:57:29.227Z,101893.41
2018-12-24T09:59:57.588Z,101892.72
2018-12-24T10:02:28.559Z,101896.80
2018-12-24T10:04:56.828Z,101889.56
2018-12-24T10:07:40.630Z,101893.86
2018-12-24T10:10:13.263Z,101890.73
2018-12-24T10:12:41.501Z,101892.36
2018-12-24T10:15:09.756Z,101896.12
2018-12-24T10:17:38.096Z,101886.81
2018-12-24T10:20:06.363Z,101889.58
2018-12-24T10:22:34.663Z,101888.27
2018-12-24T10:25:02.959Z,101882.80
2018-12-24T10:27:31.240Z,101874.72
2018-12-24T10:29:59.479Z,101881.80
2018-12-24T10:32:27.775Z,101869.00
2018-12-24T10:34:56.007Z,101864.77
2018-12-24T10:37:24.332Z,101868.69
2018-12-24T10:39:52.677Z,101876.96
2018-12-24T10:42:20.968Z,101891.58
2018-12-24T10:44:49.209Z,101889.67
2018-12-24T10:47:17.511Z,101880.30
2018-12-24T10:49:45.799Z,101881.48
2018-12-24T10:52:14.027Z,101883.18
2018-12-24T10:54:42.404Z,101877.98
2018-12-24T10:57:10.751Z,101879.64
2018-12-24T10:59:39.004Z,101869.78
2018-12-24T11:02:07.295Z,101871.41
2018-12-24T11:04:35.508Z,101864.47
2018-12-24T11:07:03.749Z,101865.50
2018-12-24T11:09:32.407Z,101863.90
2018-12-24T11:12:01.027Z,101865.21
2018-12-24T11:14:29.268Z,101866.66
2018-12-24T11:16:57.566Z,101862.74
2018-12-24T11:19:25.781Z,101866.37
2018-12-24T11:21:54.012Z,101868.47
2018-12-24T11:24:22.399Z,101870.47
2018-12-24T11:26:50.676Z,101861.48
2018-12-24T11:29:18.975Z,101864.41
2018-12-24T11:31:47.387Z,101863.34
2018-12-24T11:34:15.627Z,101869.20
2018-12-24T11:36:43.867Z,101863.61
2018-12-24T11:39:12.251Z,101863.55
2018-12-24T11:41:40.519Z,101862.86
2018-12-24T11:44:08.765Z,101865.30
2018-12-24T11:46:37.132Z,101867.55
2018-12-24T11:49:05.403Z,101866.35
2018-12-24T11:51:33.691Z,101868.59
2018-12-24T11:54:01.971Z,101864.54
2018-12-24T11:56:30.245Z,101860.56
2018-12-24T11:58:58.580Z,101862.29
2018-12-24T12:01:26.871Z,101864.94
2018-12-24T12:03:55.112Z,101862.39
2018-12-24T12:06:23.373Z,101854.53
2018-12-24T12:08:51.659Z,101855.40
2018-12-24T12:11:19.893Z,101856.73
2018-12-24T12:13:48.159Z,101858.91
2018-12-24T12:16:16.555Z,101851.39
2018-12-24T12:18:44.812Z,101847.00
2018-12-24T12:21:13.069Z,101840.66
2018-12-24T12:23:41.379Z,101852.72
2018-12-24T12:26:09.607Z,101857.13
2018-12-24T12:28:37.843Z,101860.33
2018-12-24T12:31:06.147Z,101856.75
2018-12-24T12:33:36.019Z,101859.58
2018-12-24T12:36:04.319Z,101861.02
2018-12-24T12:38:32.712Z,101854.08
2018-12-24T12:41:00.955Z,101856.22
2018-12-24T12:43:29.192Z,101860.49
2018-12-24T12:45:57.563Z,101866.23
2018-12-24T12:48:25.791Z,101861.73
2018-12-24T12:50:54.031Z,101854.81
2018-12-24T12:53:22.323Z,101848.56
2018-12-24T12:55:50.563Z,101840.39
2018-12-24T12:58:18.827Z,101846.14
2018-12-24T13:00:47.219Z,101840.37
2018-12-24T13:03:15.456Z,101837.42
2018-12-24T13:05:43.703Z,101837.78
2018-12-24T13:08:12.103Z,101837.91
2018-12-24T13:10:40.356Z,101832.37
2018-12-24T13:13:08.641Z,101832.95
2018-12-24T13:15:37.543Z,101832.30
2018-12-24T13:18:05.792Z,101840.13
2018-12-24T13:20:34.044Z,101832.10
2018-12-24T13:23:02.423Z,101839.52
2018-12-24T13:25:30.652Z,101844.41
2018-12-24T13:27:58.883Z,101850.67
2018-12-24T13:30:27.519Z,101851.91
2018-12-24T13:32:55.756Z,101837.19
2018-12-24T13:35:24.007Z,101847.97
2018-12-24T13:37:52.311Z,101840.91
2018-12-24T13:40:20.539Z,101841.95
2018-12-24T13:42:48.787Z,101844.63
2018-12-24T13:45:17.212Z,101844.89
2018-12-24T13:47:45.443Z,101838.89
2018-12-24T13:50:13.705Z,101838.68
2018-12-24T13:52:42.071Z,101832.04
2018-12-24T13:55:10.329Z,101832.27
2018-12-24T13:57:38.547Z,101826.52
2018-12-24T14:00:06.982Z,101823.06
2018-12-24T14:02:35.320Z,101831.30
2018-12-24T14:05:03.551Z,101832.58
2018-12-24T14:07:31.855Z,101831.70
2018-12-24T14:10:00.320Z,101825.52
2018-12-24T14:12:28.828Z,101832.69
2018-12-24T14:14:57.119Z,101827.26
2018-12-24T14:17:25.363Z,101825.88
2018-12-24T14:19:53.599Z,101830.56
2018-12-24T14:22:21.984Z,101829.76
2018-12-24T14:24:50.231Z,101828.44
2018-12-24T14:27:18.488Z,101825.84
2018-12-24T14:29:46.767Z,101823.25
2018-12-24T14:32:15.012Z,101825.22
2018-12-24T14:34:43.283Z,101820.34
2018-12-24T14:37:11.773Z,101826.00
2018-12-24T14:39:40.031Z,101825.67
2018-12-24T14:42:08.255Z,101822.32
2018-12-24T14:44:36.544Z,101826.95
2018-12-24T14:47:04.873Z,101835.34
2018-12-24T14:49:33.122Z,101833.11
2018-12-24T14:52:01.436Z,101835.24
2018-12-24T14:54:29.765Z,101829.19
2018-12-24T14:56:58.019Z,101830.92
2018-12-24T14:59:26.401Z,101820.91
2018-12-24T15:01:54.627Z,101827.16
2018-12-24T15:04:22.991Z,101823.23
2018-12-24T15:06:51.271Z,101816.17
2018-12-24T15:09:19.503Z,101822.48
2018-12-24T15:11:47.743Z,101818.83
2018-12-24T15:14:16.044Z,101811.33
2018-12-24T15:16:44.276Z,101807.27
2018-12-24T15:19:12.556Z,101799.29
2018-12-24T15:21:40.843Z,101801.00
2018-12-24T15:24:09.076Z,101795.19
2018-12-24T15:26:37.311Z,101793.70
2018-12-24T15:29:05.706Z,101793.20
2018-12-24T15:31:33.939Z,101783.08
2018-12-24T15:34:02.179Z,101782.54
2018-12-24T15:36:32.244Z,101782.48
2018-12-24T15:39:00.562Z,101785.39
2018-12-24T15:41:28.787Z,101781.33
2018-12-24T15:43:57.127Z,101788.00
2018-12-24T15:46:25.379Z,101787.91
2018-12-24T15:48:53.635Z,101780.59
2018-12-24T15:51:22.015Z,101783.59
2018-12-24T15:53:50.268Z,101767.88
2018-12-24T15:56:18.523Z,101763.28
2018-12-24T15:58:46.825Z,101760.73
2018-12-24T16:01:15.076Z,101767.97
2018-12-24T16:03:43.307Z,101761.88
2018-12-24T16:06:11.684Z,101762.55
2018-12-24T16:08:39.944Z,101763.31
2018-12-24T16:11:08.174Z,101767.33
2018-12-24T16:13:36.523Z,101771.96
2018-12-24T16:16:04.771Z,101764.95
2018-12-24T16:18:33.035Z,101759.21
2018-12-24T16:21:01.419Z,101759.10
2018-12-24T16:23:29.669Z,101768.23
2018-12-24T16:25:57.944Z,101767.41
2018-12-24T16:28:26.231Z,101777.09
2018-12-24T16:30:54.487Z,101774.14
2018-12-24T16:33:22.729Z,101768.67
2018-12-24T16:35:51.040Z,101759.48
2018-12-24T16:38:19.316Z,101761.95
2018-12-24T16:40:47.567Z,101761.87
2018-12-24T16:43:15.868Z,101757.19
2018-12-24T16:45:44.131Z,101765.23
2018-12-24T16:48:12.398Z,101759.36
2018-12-24T16:50:40.704Z,101765.36
2018-12-24T16:53:08.949Z,101765.52
2018-12-24T16:55:37.246Z,101767.79
2018-12-24T16:58:05.610Z,101765.28
2018-12-24T17:00:33.867Z,101768.03
2018-12-24T17:03:02.171Z,101769.11
2018-12-24T17:05:30.566Z,101768.33
2018-12-24T17:07:58.891Z,101772.52
2018-12-24T17:10:27.150Z,101763.80
2018-12-24T17:12:55.452Z,101761.41
2018-12-24T17:15:23.761Z,101764.53
2018-12-24T17:17:52.007Z,101754.91
2018-12-24T17:20:20.362Z,101752.77
2018-12-24T17:22:48.703Z,101750.67
2018-12-24T17:25:16.972Z,101747.04
2018-12-24T17:27:45.292Z,101745.84
2018-12-24T17:30:13.552Z,101739.09
2018-12-24T17:32:41.843Z,101735.02
2018-12-24T17:35:10.142Z,101735.91
2018-12-24T17:37:38.411Z,101731.42
2018-12-24T17:40:06.673Z,101728.79
2018-12-24T17:42:35.067Z,101738.17
2018-12-24T17:45:04.180Z,101729.77
2018-12-24T17:47:32.539Z,101728.16
2018-12-24T17:50:00.828Z,101724.78
2018-12-24T17:52:29.060Z,101714.09
2018-12-24T17:54:57.919Z,101705.45
2018-12-24T17:57:26.771Z,101709.24
2018-12-24T17:59:55.207Z,101710.02
2018-12-24T18:02:23.431Z,101705.52
2018-12-24T18:04:51.820Z,101702.26
2018-12-24T18:07:20.149Z,101694.95
2018-12-24T18:09:49.412Z,101697.53
2018-12-24T18:12:17.931Z,101696.44
2018-12-24T18:14:46.269Z,101702.44
2018-12-24T18:17:14.480Z,101696.81
2018-12-24T18:19:42.775Z,101696.50
2018-12-24T18:22:11.109Z,101696.61
2018-12-24T18:24:39.559Z,101694.60
2018-12-24T18:27:07.928Z,101699.27
2018-12-24T18:29:36.180Z,101688.27
2018-12-24T18:32:04.431Z,101689.20
2018-12-24T18:34:32.740Z,101686.67
2018-12-24T18:37:01.319Z,101682.02
2018-12-24T18:39:29.863Z,101682.02
2018-12-24T18:41:58.179Z,101688.92
2018-12-24T18:44:26.420Z,101682.78
2018-12-24T18:46:54.792Z,101673.56
2018-12-24T18:49:23.167Z,101686.88
2018-12-24T18:51:51.416Z,101683.40
2018-12-24T18:54:19.676Z,101691.19
2018-12-24T18:56:47.987Z,101693.36
2018-12-24T18:59:16.239Z,101690.81
2018-12-24T19:01:44.487Z,101687.22
2018-12-24T19:04:12.827Z,101686.39
2018-12-24T19:06:41.108Z,101681.66
2018-12-24T19:09:09.356Z,101677.48
2018-12-24T19:11:37.820Z,101675.95
2018-12-24T19:14:06.084Z,101672.70
2018-12-24T19:16:34.503Z,101662.67
2018-12-24T19:19:05.067Z,101661.33
2018-12-24T19:21:48.939Z,101657.44
2018-12-24T19:24:17.367Z,101654.14
2018-12-24T19:26:45.736Z,101661.33
2018-12-24T19:29:16.442Z,101657.17
2018-12-24T19:31:44.695Z,101651.30
2018-12-24T19:34:36.090Z,101646.76
2018-12-24T19:37:06.981Z,101642.06
2018-12-24T19:39:50.636Z,101640.91
2018-12-24T19:45:35.303Z,101626.97
2018-12-24T19:48:11.942Z,101633.39
2018-12-24T21:13:57.711Z,101534.52
2018-12-24T21:16:27.732Z,101528.55
2018-12-24T21:18:57.847Z,101519.23
2018-12-24T21:21:26.835Z,101509.52
2018-12-24T21:23:55.476Z,101501.84
2018-12-24T21:26:23.955Z,101501.03
2018-12-24T21:28:52.517Z,101502.02
2018-12-24T21:31:21.269Z,101501.08
2018-12-24T21:33:49.683Z,101495.59
2018-12-24T21:36:18.083Z,101491.77
2018-12-24T21:38:46.530Z,101490.98
2018-12-24T21:41:15.033Z,101481.13
2018-12-24T21:43:43.450Z,101480.23
2018-12-24T21:46:11.823Z,101468.80
2018-12-24T21:48:40.260Z,101459.48
2018-12-24T21:51:08.597Z,101463.70
2018-12-24T21:53:37.051Z,101458.47
2018-12-24T21:56:05.441Z,101457.89
2018-12-24T21:58:34.149Z,101449.81
2018-12-24T22:01:02.632Z,101447.67
2018-12-24T22:03:30.990Z,101445.67
2018-12-24T22:05:59.397Z,101434.66
2018-12-24T22:08:27.831Z,101424.86
2018-12-24T22:10:56.179Z,101418.44
2018-12-24T22:13:24.473Z,101416.00
2018-12-24T22:15:52.863Z,101420.26
2018-12-24T22:18:21.319Z,101414.78
2018-12-24T22:20:49.639Z,101409.20
2018-12-24T22:23:18.044Z,101405.05
2018-12-24T22:25:46.341Z,101399.96
2018-12-24T22:28:16.655Z,101405.94
2018-12-24T22:30:44.571Z,101398.81
2018-12-24T22:33:12.830Z,101378.78
2018-12-24T22:35:41.056Z,101393.73
2018-12-24T22:38:09.356Z,101382.28
2018-12-24T22:40:37.605Z,101372.93
2018-12-24T22:43:05.851Z,101376.86
2018-12-24T22:45:34.155Z,101374.82
2018-12-24T22:48:02.452Z,101366.75
2018-12-24T22:50:30.732Z,101362.55
2018-12-24T22:52:59.075Z,101362.94
2018-12-24T22:55:27.343Z,101362.56
2018-12-24T22:57:55.591Z,101362.61
2018-12-24T23:00:41.565Z,101365.17
2018-12-24T23:03:09.811Z,101359.69
2018-12-24T23:05:38.059Z,101363.55
2018-12-24T23:08:06.428Z,101361.01
2018-12-24T23:10:34.671Z,101354.70
2018-12-24T23:13:02.925Z,101359.90
2018-12-24T23:15:31.216Z,101363.77
2018-12-24T23:17:59.474Z,101361.64
2018-12-24T23:20:27.711Z,101358.70
2018-12-24T23:22:56.160Z,101342.91
2018-12-24T23:25:24.402Z,101346.80
2018-12-24T23:27:52.647Z,101343.83
2018-12-24T23:30:20.961Z,101319.89
2018-12-24T23:32:49.191Z,101317.77
2018-12-24T23:35:17.440Z,101324.23
2018-12-24T23:37:45.804Z,101315.70
2018-12-24T23:40:14.069Z,101307.15
2018-12-24T23:42:42.327Z,101317.03
2018-12-24T23:45:10.639Z,101316.61
2018-12-24T23:47:38.931Z,101313.20
2018-12-24T23:50:07.219Z,101318.37
2018-12-24T23:52:35.639Z,101317.52
2018-12-24T23:55:03.896Z,101308.11
2018-12-24T23:57:32.149Z,101308.12
